createdAt,value
2022-11-05T00:02:48.475Z,10.08
2022-11-05T00:07:09.032Z,10.03
2022-11-05T00:11:15.241Z,9.98
2022-11-05T00:15:36.105Z,9.92
2022-11-05T00:19:34.794Z,9.87
2022-11-05T00:23:51.948Z,9.85
2022-11-05T00:27:53.323Z,9.82
2022-11-05T00:31:52.755Z,9.80
2022-11-05T00:35:51.277Z,9.76
2022-11-05T00:39:50.013Z,9.79
2022-11-05T00:44:07.276Z,9.75
2022-11-05T00:48:24.971Z,9.71
2022-11-05T00:52:53.826Z,9.67
2022-11-05T00:57:04.914Z,9.70
2022-11-05T01:00:44.154Z,9.73
2022-11-05T01:04:19.443Z,9.75
2022-11-05T01:07:57.027Z,9.75
2022-11-05T01:11:40.048Z,9.73
2022-11-05T01:15:13.245Z,9.70
2022-11-05T01:18:50.222Z,9.68
2022-11-05T01:22:30.514Z,9.65
2022-11-05T01:26:03.678Z,9.63
2022-11-05T01:29:42.083Z,9.63
2022-11-05T01:33:20.413Z,9.61
2022-11-05T01:36:58.405Z,9.61
2022-11-05T01:40:36.588Z,9.60
2022-11-05T01:44:51.017Z,9.59
2022-11-05T01:48:19.564Z,9.57
2022-11-05T01:51:39.110Z,9.58
2022-11-05T01:55:18.036Z,9.58
2022-11-05T01:59:03.073Z,9.58
2022-11-05T02:02:33.297Z,9.58
2022-11-05T02:06:12.981Z,9.59
2022-11-05T02:09:53.609Z,9.58
2022-11-05T02:13:25.467Z,9.58
2022-11-05T02:17:22.638Z,9.58
2022-11-05T02:21:07.360Z,9.57
2022-11-05T02:24:47.708Z,9.58
2022-11-05T02:29:22.856Z,9.58
2022-11-05T02:32:58.245Z,9.59
2022-11-05T02:36:34.574Z,9.59
2022-11-05T02:40:00.057Z,9.60
2022-11-05T02:44:29.104Z,9.61
2022-11-05T02:47:39.961Z,9.60
2022-11-05T02:51:43.070Z,9.59
2022-11-05T02:55:05.411Z,9.60
2022-11-05T02:58:40.534Z,9.61
2022-11-05T03:02:11.147Z,9.61
2022-11-05T03:06:22.367Z,9.62
2022-11-05T03:09:43.859Z,9.62
2022-11-05T03:13:22.428Z,9.59
2022-11-05T03:17:25.280Z,9.57
2022-11-05T03:20:35.863Z,9.54
2022-11-05T03:24:30.930Z,9.54
2022-11-05T03:27:52.147Z,9.53
2022-11-05T03:31:28.733Z,9.53
2022-11-05T03:35:11.862Z,9.53
2022-11-05T03:38:47.582Z,9.54
2022-11-05T03:42:23.496Z,9.54
2022-11-05T03:46:09.295Z,9.51
2022-11-05T03:49:44.055Z,9.53
2022-11-05T03:53:33.898Z,9.55
2022-11-05T03:56:56.892Z,9.56
2022-11-05T04:00:28.791Z,9.56
2022-11-05T04:04:14.868Z,9.57
2022-11-05T04:08:03.978Z,9.57
2022-11-05T04:11:39.145Z,9.55
2022-11-05T04:14:58.679Z,9.52
2022-11-05T04:18:40.090Z,9.49
2022-11-05T04:22:32.511Z,9.47
2022-11-05T04:26:49.295Z,9.46
2022-11-05T04:30:22.124Z,9.44
2022-11-05T04:33:59.803Z,9.45
2022-11-05T04:37:36.251Z,9.44
2022-11-05T04:41:20.336Z,9.46
2022-11-05T04:44:50.656Z,9.43
2022-11-05T04:48:59.773Z,9.43
2022-11-05T04:52:37.220Z,9.42
2022-11-05T04:56:19.306Z,9.40
2022-11-05T04:59:55.565Z,9.40
2022-11-05T05:03:30.978Z,9.40
2022-11-05T05:07:06.977Z,9.40
2022-11-05T05:10:47.278Z,9.37
2022-11-05T05:14:22.289Z,9.39
2022-11-05T05:18:00.903Z,9.39
2022-11-05T05:21:44.762Z,9.42
2022-11-05T05:25:17.257Z,9.42
2022-11-05T05:28:52.810Z,9.41
2022-11-05T05:33:07.859Z,9.41
2022-11-05T05:36:39.611Z,9.41
2022-11-05T05:40:49.445Z,9.43
2022-11-05T05:44:27.004Z,9.42
2022-11-05T05:48:05.766Z,9.41
2022-11-05T05:51:41.468Z,9.40
2022-11-05T05:55:20.381Z,9.39
2022-11-05T05:58:57.498Z,9.39
2022-11-05T06:02:37.663Z,9.38
2022-11-05T06:06:16.658Z,9.37
2022-11-05T06:09:50.315Z,9.36
2022-11-05T06:13:28.366Z,9.35
2022-11-05T06:17:06.592Z,9.35
2022-11-05T06:20:51.611Z,9.34
2022-11-05T06:24:22.325Z,9.36
2022-11-05T06:27:58.589Z,9.36
2022-11-05T06:31:36.677Z,9.36
2022-11-05T06:35:13.319Z,9.36
2022-11-05T06:38:50.998Z,9.36
2022-11-05T06:42:39.322Z,9.37
2022-11-05T06:46:05.995Z,9.38
2022-11-05T06:49:44.656Z,9.39
2022-11-05T06:53:23.833Z,9.39
2022-11-05T06:57:03.605Z,9.39
2022-11-05T07:00:38.610Z,9.40
2022-11-05T07:04:22.487Z,9.41
2022-11-05T07:07:54.673Z,9.38
2022-11-05T07:11:33.915Z,9.35
2022-11-05T07:15:10.552Z,9.35
2022-11-05T07:18:46.632Z,9.34
2022-11-05T07:22:24.717Z,9.35
2022-11-05T07:25:59.964Z,9.35
2022-11-05T07:30:15.794Z,9.35
2022-11-05T07:33:48.106Z,9.36
2022-11-05T07:37:26.298Z,9.38
2022-11-05T07:41:08.276Z,9.38
2022-11-05T07:44:41.750Z,9.38
2022-11-05T07:48:24.714Z,9.38
2022-11-05T07:51:59.154Z,9.38
2022-11-05T07:55:38.261Z,9.39
2022-11-05T07:59:15.302Z,9.39
2022-11-05T08:03:07.102Z,9.41
2022-11-05T08:06:33.958Z,9.40
2022-11-05T08:10:07.570Z,9.40
2022-11-05T08:13:46.143Z,9.41
2022-11-05T08:17:22.115Z,9.42
2022-11-05T08:20:58.203Z,9.42
2022-11-05T08:24:34.058Z,9.43
2022-11-05T08:28:16.983Z,9.46
2022-11-05T08:31:50.706Z,9.48
2022-11-05T08:35:29.206Z,9.50
2022-11-05T08:39:10.646Z,9.53
2022-11-05T08:42:45.752Z,9.56
2022-11-05T08:46:25.174Z,9.59
2022-11-05T08:49:59.841Z,9.66
2022-11-05T08:53:38.611Z,9.71
2022-11-05T08:57:19.947Z,9.75
2022-11-05T09:00:56.078Z,9.79
2022-11-05T09:04:29.594Z,9.80
2022-11-05T09:08:11.804Z,9.81
2022-11-05T09:12:10.738Z,9.81
2022-11-05T09:15:18.112Z,9.82
2022-11-05T09:18:53.558Z,9.88
2022-11-05T09:22:53.785Z,9.99
2022-11-05T09:26:53.312Z,10.06
2022-11-05T09:30:53.886Z,10.14
2022-11-05T09:34:30.710Z,10.19
2022-11-05T09:38:55.391Z,10.26
2022-11-05T09:42:14.345Z,10.31
2022-11-05T09:45:49.765Z,10.36
2022-11-05T09:49:54.535Z,10.42
2022-11-05T09:53:55.327Z,10.45
2022-11-05T09:58:02.099Z,10.45
2022-11-05T10:02:12.269Z,10.44
2022-11-05T10:06:18.817Z,10.44
2022-11-05T10:10:48.708Z,10.43
2022-11-05T10:15:10.774Z,10.40
2022-11-05T10:19:16.646Z,10.38
2022-11-05T10:23:21.670Z,10.33
2022-11-05T10:27:36.472Z,10.28
2022-11-05T10:31:39.033Z,10.27
2022-11-05T10:35:48.504Z,10.30
2022-11-05T10:39:49.260Z,10.34
2022-11-05T10:43:58.317Z,10.38
2022-11-05T10:48:07.161Z,10.42
2022-11-05T10:52:37.220Z,10.48
2022-11-05T10:56:40.030Z,10.57
2022-11-05T11:00:40.057Z,10.67
2022-11-05T11:04:40.438Z,10.75
2022-11-05T11:08:40.209Z,10.85
2022-11-05T11:12:44.308Z,10.95
2022-11-05T11:16:51.620Z,11.02
2022-11-05T11:20:50.670Z,11.05
2022-11-05T11:24:54.121Z,11.07
2022-11-05T11:29:05.964Z,11.09
2022-11-05T11:33:13.127Z,11.11
2022-11-05T11:36:47.635Z,11.13
2022-11-05T11:40:47.500Z,11.15
2022-11-05T11:44:49.258Z,11.15
2022-11-05T11:48:50.104Z,11.17
2022-11-05T11:52:49.649Z,11.19
2022-11-05T11:56:49.355Z,11.22
2022-11-05T12:01:02.552Z,11.25
2022-11-05T12:05:02.046Z,11.27
2022-11-05T12:09:29.476Z,11.29
2022-11-05T12:14:25.922Z,11.29
2022-11-05T12:18:57.900Z,11.29
2022-11-05T12:23:54.243Z,11.29
2022-11-05T12:27:06.098Z,11.30
2022-11-05T12:31:36.336Z,11.31
2022-11-05T12:36:03.975Z,11.32
2022-11-05T12:40:42.234Z,11.33
2022-11-05T12:44:52.051Z,11.37
2022-11-05T12:48:57.970Z,11.40
2022-11-05T12:53:14.374Z,11.40
2022-11-05T12:57:17.430Z,11.39
2022-11-05T13:01:27.474Z,11.38
2022-11-05T13:06:08.859Z,11.36
2022-11-05T13:10:27.485Z,11.36
2022-11-05T13:14:29.834Z,11.36
2022-11-05T13:19:00.523Z,11.38
2022-11-05T13:23:38.106Z,11.39
2022-11-05T13:28:04.308Z,11.41
2022-11-05T13:32:27.076Z,11.42
2022-11-05T13:36:51.840Z,11.42
2022-11-05T13:41:23.805Z,11.42
2022-11-05T13:45:30.525Z,11.40
2022-11-05T13:50:11.268Z,11.39
2022-11-05T13:54:14.726Z,11.38
2022-11-05T13:58:47.385Z,11.38
2022-11-05T14:02:53.780Z,11.38
2022-11-05T14:06:55.389Z,11.39
2022-11-05T14:11:33.799Z,11.40
2022-11-05T14:15:33.900Z,11.40
2022-11-05T14:20:10.037Z,11.40
2022-11-05T14:24:23.358Z,11.38
2022-11-05T14:28:35.680Z,11.38
2022-11-05T14:32:46.221Z,11.39
2022-11-05T14:37:03.727Z,11.39
2022-11-05T14:41:04.151Z,11.38
2022-11-05T14:45:27.347Z,11.37
2022-11-05T14:49:31.839Z,11.33
2022-11-05T14:53:34.399Z,11.29
2022-11-05T14:57:55.491Z,11.28
2022-11-05T15:02:21.016Z,11.24
2022-11-05T15:05:39.807Z,11.22
2022-11-05T15:09:45.450Z,11.19
2022-11-05T15:14:01.687Z,11.16
2022-11-05T15:18:06.268Z,11.13
2022-11-05T15:22:12.964Z,11.10
2022-11-05T15:26:38.482Z,11.07
2022-11-05T15:30:38.585Z,11.04
2022-11-05T15:34:38.985Z,11.02
2022-11-05T15:38:56.671Z,10.99
2022-11-05T15:43:20.475Z,10.97
2022-11-05T15:47:28.227Z,10.95
2022-11-05T15:51:27.980Z,10.91
2022-11-05T15:55:55.453Z,10.87
2022-11-05T15:59:32.857Z,10.85
2022-11-05T16:03:35.996Z,10.85
2022-11-05T16:07:36.229Z,10.83
2022-11-05T16:11:35.939Z,10.80
2022-11-05T16:15:36.502Z,10.76
2022-11-05T16:19:40.910Z,10.72
2022-11-05T16:23:53.484Z,10.67
2022-11-05T16:27:54.374Z,10.61
2022-11-05T16:32:02.460Z,10.57
2022-11-05T16:35:46.312Z,10.52
2022-11-05T16:39:46.440Z,10.48
2022-11-05T16:43:55.992Z,10.46
2022-11-05T16:47:56.120Z,10.45
2022-11-05T16:51:55.825Z,10.44
2022-11-05T16:56:03.096Z,10.43
2022-11-05T16:59:34.182Z,10.41
2022-11-05T17:03:33.772Z,10.41
2022-11-05T17:07:53.254Z,10.41
2022-11-05T17:11:21.750Z,10.41
2022-11-05T17:15:39.584Z,10.42
2022-11-05T17:19:42.775Z,10.43
2022-11-05T17:23:42.737Z,10.43
2022-11-05T17:27:42.111Z,10.42
2022-11-05T17:31:42.109Z,10.41
2022-11-05T17:35:42.628Z,10.41
2022-11-05T17:39:43.466Z,10.39
2022-11-05T17:43:45.569Z,10.34
2022-11-05T17:47:21.774Z,10.29
2022-11-05T18:02:53.078Z,10.24
2022-11-05T18:06:01.837Z,10.26
2022-11-05T18:10:00.866Z,10.26
2022-11-05T18:14:00.125Z,10.25
2022-11-05T18:24:35.690Z,10.23
2022-11-05T18:28:39.724Z,10.22
2022-11-05T18:32:44.216Z,10.21
2022-11-05T18:36:21.859Z,10.20
2022-11-05T18:40:20.976Z,10.20
2022-11-05T18:44:38.897Z,10.20
2022-11-05T18:48:38.395Z,10.20
2022-11-05T18:52:38.166Z,10.18
2022-11-05T18:56:37.573Z,10.17
2022-11-05T19:00:39.809Z,10.17
2022-11-05T19:04:39.882Z,10.16
2022-11-05T19:08:39.736Z,10.15
2022-11-05T19:12:39.079Z,10.13
2022-11-05T19:16:38.817Z,10.11
2022-11-05T19:20:39.021Z,10.08
2022-11-05T19:24:52.504Z,10.08
2022-11-05T19:28:52.964Z,10.07
2022-11-05T19:32:52.763Z,10.05
2022-11-05T19:36:52.837Z,10.03
2022-11-05T19:40:52.943Z,10.01
2022-11-05T19:44:51.942Z,10.00
2022-11-05T19:48:52.988Z,9.96
2022-11-05T19:52:54.500Z,9.94
2022-11-05T19:56:53.416Z,9.93
2022-11-05T20:00:55.804Z,9.90
2022-11-05T20:04:54.764Z,9.88
2022-11-05T20:13:49.259Z,9.77
2022-11-05T20:17:08.179Z,9.72
2022-11-05T20:21:09.326Z,9.67
2022-11-05T20:25:09.391Z,9.63
2022-11-05T20:29:23.497Z,9.60
2022-11-05T20:33:22.282Z,9.57
2022-11-05T20:37:21.037Z,9.55
2022-11-05T20:41:20.135Z,9.53
2022-11-05T20:45:20.897Z,9.52
2022-11-05T20:48:56.925Z,9.49
2022-11-05T20:53:10.108Z,9.45
2022-11-05T20:57:08.773Z,9.42
2022-11-05T21:01:08.350Z,9.40
2022-11-05T21:05:08.417Z,9.40
2022-11-05T21:09:07.246Z,9.39
2022-11-05T21:13:05.732Z,9.39
2022-11-05T21:17:04.776Z,9.38
2022-11-05T21:21:05.354Z,9.38
2022-11-05T21:25:04.416Z,9.35
2022-11-05T21:29:17.223Z,9.33
2022-11-05T21:33:16.932Z,9.30
2022-11-05T21:37:15.993Z,9.27
2022-11-05T21:41:14.743Z,9.26
2022-11-05T21:45:14.263Z,9.23
2022-11-05T21:49:14.751Z,9.21
2022-11-05T21:53:33.412Z,9.19
2022-11-05T21:57:51.495Z,9.18
2022-11-05T22:01:50.647Z,9.18
2022-11-05T22:05:49.557Z,9.14
2022-11-05T22:09:48.606Z,9.13
2022-11-05T22:13:47.510Z,9.10
2022-11-05T22:17:47.463Z,9.08
2022-11-05T22:21:46.876Z,9.06
2022-11-05T22:25:45.433Z,9.03
2022-11-05T22:29:46.275Z,9.02
2022-11-05T22:33:45.390Z,9.01
2022-11-05T22:37:44.622Z,9.03
2022-11-05T22:41:44.038Z,9.01
2022-11-05T22:45:44.139Z,9.00
2022-11-05T22:49:43.477Z,8.96
2022-11-05T22:53:43.063Z,8.93
2022-11-05T22:57:42.651Z,8.90
2022-11-05T23:01:43.172Z,8.88
2022-11-05T23:05:42.068Z,8.86
2022-11-05T23:09:59.691Z,8.85
2022-11-05T23:13:58.831Z,8.88
2022-11-05T23:18:16.567Z,8.87
2022-11-05T23:22:34.579Z,8.87
2022-11-05T23:26:56.476Z,8.84
2022-11-05T23:31:14.395Z,8.82
2022-11-05T23:35:13.691Z,8.81
2022-11-05T23:39:12.593Z,8.82
2022-11-05T23:43:30.279Z,8.83
2022-11-05T23:47:48.107Z,8.83
2022-11-05T23:51:47.281Z,8.83
2022-11-05T23:55:45.918Z,8.82
2022-11-05T23:59:44.646Z,8.80
